Time;durP1;ratioP1;P1;durP2;ratioP2;P2;SDS_P1;SDS_P2;PMS_P1;PMS_P2;Temp;Humidity;BMP_temperature;BMP_pressure;BME280_temperature;BME280_humidity;BME280_pressure;Samples;Min_cycle;Max_cycle;Signal;HPM_P1;HPM_P2
2023/01/28 00:00:35;;;;;;;1999.90;999.90;;;1.80;99.90;;;;;;5000513;28;21144;-69
2023/01/28 00:03:02;;;;;;;1999.90;999.90;;;1.70;99.90;;;;;;4988347;28;20483;-68
2023/01/28 00:05:29;;;;;;;1999.90;999.90;;;1.80;99.90;;;;;;5026488;28;20469;-68
2023/01/28 00:07:56;;;;;;;1999.90;999.90;;;1.80;99.90;;;;;;5028090;28;20480;-69
2023/01/28 00:10:23;;;;;;;1999.90;999.90;;;1.80;99.90;;;;;;5021836;28;20900;-69
2023/01/28 00:12:51;;;;;;;1999.90;999.90;;;1.70;99.90;;;;;;5016124;28;20449;-68
2023/01/28 00:15:18;;;;;;;1999.90;999.90;;;1.80;99.90;;;;;;5021622;28;21090;-68
2023/01/28 00:17:45;;;;;;;1999.90;999.90;;;1.80;99.90;;;;;;5028502;28;21034;-68
2023/01/28 00:20:12;;;;;;;1999.90;999.90;;;1.70;99.90;;;;;;5022953;28;20446;-69
2023/01/28 00:22:39;;;;;;;1999.90;999.90;;;1.70;99.90;;;;;;5008389;28;20486;-69
2023/01/28 00:25:06;;;;;;;1999.90;999.90;;;1.70;99.90;;;;;;5008262;28;20485;-68
2023/01/28 00:27:33;;;;;;;1999.90;999.90;;;1.70;99.90;;;;;;5008573;28;20449;-68
2023/01/28 00:30:01;;;;;;;1999.90;999.90;;;1.70;99.90;;;;;;5007098;28;20481;-69
2023/01/28 00:32:27;;;;;;;1999.90;999.90;;;1.70;99.90;;;;;;5008010;28;20533;-69
2023/01/28 00:34:54;;;;;;;1999.90;999.90;;;1.70;99.90;;;;;;5008179;28;20470;-69
2023/01/28 00:37:21;;;;;;;1999.90;999.90;;;1.80;99.90;;;;;;5008257;28;20993;-69
2023/01/28 00:39:49;;;;;;;1999.90;999.90;;;1.70;99.90;;;;;;5008186;28;20462;-68
2023/01/28 00:42:16;;;;;;;1999.90;999.90;;;1.70;99.90;;;;;;5012798;28;20473;-69
2023/01/28 00:44:43;;;;;;;1999.90;999.90;;;1.80;99.90;;;;;;5019092;28;20491;-68
2023/01/28 00:47:11;;;;;;;1999.90;999.90;;;1.80;99.90;;;;;;5027780;28;20475;-69
2023/01/28 00:49:38;;;;;;;1999.90;999.90;;;1.70;99.90;;;;;;5014592;28;20489;-68
2023/01/28 00:52:05;;;;;;;1999.90;999.90;;;1.80;99.90;;;;;;5008344;28;20460;-68
2023/01/28 00:54:32;;;;;;;1999.90;999.90;;;1.70;99.90;;;;;;5014158;28;20466;-69
2023/01/28 00:56:58;;;;;;;1999.90;999.90;;;1.80;99.90;;;;;;5015558;28;20450;-69
2023/01/28 00:59:26;;;;;;;1999.90;999.90;;;1.80;99.90;;;;;;5019358;28;20450;-69
2023/01/28 01:01:53;;;;;;;1999.90;999.90;;;1.80;99.90;;;;;;5015695;28;21186;-68
2023/01/28 01:04:25;;;;;;;1999.90;999.90;;;1.90;99.90;;;;;;5015032;28;20474;-69
2023/01/28 01:06:52;;;;;;;1999.90;999.90;;;1.80;99.90;;;;;;5015697;28;20449;-69
2023/01/28 01:09:21;;;;;;;1999.90;999.90;;;1.90;99.90;;;;;;5011011;28;20504;-70
2023/01/28 01:11:48;;;;;;;1999.90;999.90;;;1.90;99.90;;;;;;5009102;28;20556;-70
2023/01/28 01:14:14;;;;;;;1999.90;999.90;;;1.90;99.90;;;;;;5019314;28;20461;-69
2023/01/28 01:16:41;;;;;;;1999.90;999.90;;;2.00;99.90;;;;;;5027990;28;20444;-69
2023/01/28 01:19:08;;;;;;;1999.90;999.90;;;1.90;99.90;;;;;;5018805;28;20457;-69
2023/01/28 01:21:37;;;;;;;1999.90;999.90;;;2.00;99.90;;;;;;5008114;28;20457;-69
2023/01/28 01:24:04;;;;;;;1999.90;999.90;;;1.90;99.90;;;;;;5007169;28;20476;-69
2023/01/28 01:26:30;;;;;;;1999.90;999.90;;;1.90;99.90;;;;;;4990304;28;20979;-69
2023/01/28 01:28:57;;;;;;;1999.90;999.90;;;1.90;99.90;;;;;;4987793;28;21191;-68
2023/01/28 01:31:24;;;;;;;1999.90;999.90;;;2.00;99.90;;;;;;4988926;28;20454;-69
2023/01/28 01:33:52;;;;;;;1999.90;999.90;;;1.90;99.90;;;;;;5000098;28;20473;-69
2023/01/28 01:36:20;;;;;;;1999.90;999.90;;;2.00;99.90;;;;;;5007768;28;20874;-69
2023/01/28 01:38:52;;;;;;;1999.90;999.90;;;2.00;99.90;;;;;;5007553;28;20460;-69
2023/01/28 01:41:25;;;;;;;1999.90;999.90;;;2.00;99.90;;;;;;5007321;28;20798;-69
2023/01/28 01:43:54;;;;;;;1999.90;999.90;;;2.00;99.90;;;;;;5015025;28;20944;-69
2023/01/28 01:46:26;;;;;;;1999.90;999.90;;;2.00;99.90;;;;;;5007401;28;20446;-69
2023/01/28 01:48:54;;;;;;;1999.90;999.90;;;1.90;99.90;;;;;;5001085;28;20443;-69
2023/01/28 01:51:26;;;;;;;1999.90;999.90;;;1.90;99.90;;;;;;4987711;28;20447;-68
2023/01/28 01:53:57;;;;;;;1999.90;999.90;;;1.90;99.90;;;;;;4987008;28;20924;-69
2023/01/28 01:56:29;;;;;;;1999.90;999.90;;;1.80;99.90;;;;;;4987648;28;21077;-69
2023/01/28 01:58:57;;;;;;;1999.90;999.90;;;1.90;99.90;;;;;;4992487;28;20850;-68
2023/01/28 02:01:28;;;;;;;1999.90;999.90;;;1.90;99.90;;;;;;4991242;28;20530;-69
2023/01/28 02:04:02;;;;;;;1999.90;999.90;;;1.90;99.90;;;;;;4986677;28;20482;-69
2023/01/28 02:06:30;;;;;;;1999.90;999.90;;;1.90;99.90;;;;;;4987409;28;20455;-69
2023/01/28 02:08:58;;;;;;;1999.90;999.90;;;1.90;99.90;;;;;;4986868;28;20447;-69
2023/01/28 02:11:27;;;;;;;1999.90;999.90;;;1.90;99.90;;;;;;4987373;28;20455;-69
2023/01/28 02:13:57;;;;;;;1999.90;999.90;;;1.90;99.90;;;;;;5014222;28;20433;-69
2023/01/28 02:16:25;;;;;;;1999.90;999.90;;;1.90;99.90;;;;;;5026536;28;20560;-69
2023/01/28 02:18:52;;;;;;;1999.90;999.90;;;1.90;99.90;;;;;;5026095;28;20451;-68
2023/01/28 02:21:44;;;;;;;1999.90;999.90;;;1.90;99.90;;;;;;5012620;28;20445;-69
2023/01/28 02:24:38;;;;;;;1999.90;999.90;;;1.90;99.90;;;;;;5005025;28;20470;-69
2023/01/28 02:27:18;;;;;;;1999.90;999.90;;;2.00;99.90;;;;;;5006690;28;20449;-69
2023/01/28 02:29:53;;;;;;;1999.90;999.90;;;2.00;99.90;;;;;;5009488;28;20923;-69
2023/01/28 02:32:25;;;;;;;1999.90;999.90;;;2.00;99.90;;;;;;4991867;28;20445;-68
2023/01/28 02:34:59;;;;;;;1999.90;999.90;;;2.00;99.90;;;;;;4991655;28;20950;-68
2023/01/28 02:37:33;;;;;;;1999.90;999.90;;;2.00;99.90;;;;;;4993409;28;20461;-69
2023/01/28 02:40:07;;;;;;;1999.90;999.90;;;2.00;99.90;;;;;;5009189;28;20445;-68
2023/01/28 02:42:36;;;;;;;1999.90;999.90;;;2.00;99.90;;;;;;5017021;28;20487;-69
2023/01/28 02:45:15;;;;;;;1999.90;999.90;;;2.00;99.90;;;;;;5011774;28;20469;-68
2023/01/28 02:47:58;;;;;;;1999.90;999.90;;;2.00;99.90;;;;;;5009851;28;20924;-68
2023/01/28 02:50:33;;;;;;;1999.90;999.90;;;2.10;99.90;;;;;;5010272;28;20464;-69
2023/01/28 02:56:02;;;;;;;1999.90;999.90;;;2.00;99.90;;;;;;4990200;28;21006;-69
2023/01/28 02:58:37;;;;;;;1999.90;999.90;;;2.00;99.90;;;;;;4990539;28;20451;-68
2023/01/28 03:01:13;;;;;;;1999.90;999.90;;;2.00;99.90;;;;;;4995477;28;20452;-68
2023/01/28 03:03:49;;;;;;;1999.90;999.90;;;1.90;99.90;;;;;;5029347;28;21095;-68
2023/01/28 03:06:21;;;;;;;1999.90;999.90;;;1.90;99.90;;;;;;5029325;28;20445;-68
2023/01/28 03:36:52;;;;;;;1999.90;999.90;;;2.00;99.90;;;;;;4991068;28;20427;-68
2023/01/28 03:39:22;;;;;;;1999.90;999.90;;;1.90;99.90;;;;;;4990838;28;20530;-69
2023/01/28 03:42:00;;;;;;;1999.90;999.90;;;1.90;99.90;;;;;;4994344;28;20923;-67
2023/01/28 03:47:12;;;;;;;1999.90;999.90;;;1.80;99.90;;;;;;5029952;28;20942;-68
2023/01/28 03:49:42;;;;;;;1999.90;999.90;;;1.80;99.90;;;;;;5030284;28;20468;-68
2023/01/28 03:52:09;;;;;;;1999.90;999.90;;;1.80;99.90;;;;;;5010086;28;20944;-68
2023/01/28 03:54:36;;;;;;;1999.90;999.90;;;1.80;99.90;;;;;;5010329;28;20536;-68
2023/01/28 03:57:02;;;;;;;1999.90;999.90;;;1.80;99.90;;;;;;5009947;28;20442;-67
2023/01/28 03:59:29;;;;;;;1999.90;999.90;;;1.80;99.90;;;;;;5010451;28;20843;-69
2023/01/28 04:01:56;;;;;;;1999.90;999.90;;;1.80;99.90;;;;;;5009049;28;20477;-69
2023/01/28 04:04:23;;;;;;;1999.90;999.90;;;1.80;99.90;;;;;;5009880;28;20481;-70
2023/01/28 04:06:52;;;;;;;1999.90;999.90;;;1.80;99.90;;;;;;5009506;28;20469;-70
2023/01/28 04:09:20;;;;;;;1999.90;999.90;;;1.80;99.90;;;;;;5009994;28;20932;-68
2023/01/28 04:11:47;;;;;;;1999.90;999.90;;;1.70;99.90;;;;;;4995346;28;20455;-69
2023/01/28 04:14:14;;;;;;;1999.90;999.90;;;1.70;99.90;;;;;;5020171;28;20465;-70
2023/01/28 04:16:41;;;;;;;1999.90;999.90;;;1.70;99.90;;;;;;5029535;28;20492;-68
2023/01/28 04:19:08;;;;;;;1999.90;999.90;;;1.70;99.90;;;;;;5028722;28;20448;-70
2023/01/28 04:21:35;;;;;;;1999.90;999.90;;;1.70;99.90;;;;;;5013305;28;20454;-68
2023/01/28 04:24:03;;;;;;;1999.90;999.90;;;1.70;99.90;;;;;;5008919;28;20621;-69
2023/01/28 04:26:30;;;;;;;1999.90;999.90;;;1.70;99.90;;;;;;5009706;28;21266;-69
2023/01/28 04:28:56;;;;;;;1999.90;999.90;;;1.70;99.90;;;;;;5009167;28;20848;-69
2023/01/28 04:31:23;;;;;;;1999.90;999.90;;;1.70;99.90;;;;;;5009097;28;20469;-70
2023/01/28 04:33:50;;;;;;;1999.90;999.90;;;1.70;99.90;;;;;;5008508;28;20458;-69
2023/01/28 04:36:17;;;;;;;1999.90;999.90;;;1.70;99.90;;;;;;5009234;28;20456;-70
2023/01/28 04:38:44;;;;;;;1999.90;999.90;;;1.70;99.90;;;;;;5009361;28;20970;-68
2023/01/28 04:41:12;;;;;;;1999.90;999.90;;;1.70;99.90;;;;;;5008307;28;20983;-68
2023/01/28 04:43:39;;;;;;;1999.90;999.90;;;1.70;99.90;;;;;;5017039;28;20490;-68
2023/01/28 04:46:06;;;;;;;1999.90;999.90;;;1.70;99.90;;;;;;5028159;28;20472;-68
2023/01/28 04:48:35;;;;;;;1999.90;999.90;;;1.70;99.90;;;;;;5028486;28;20460;-68
2023/01/28 04:51:02;;;;;;;1999.90;999.90;;;1.70;99.90;;;;;;5017012;28;20461;-69
2023/01/28 04:53:29;;;;;;;1999.90;999.90;;;1.70;99.90;;;;;;5008623;28;20484;-69
2023/01/28 04:55:56;;;;;;;1999.90;999.90;;;1.70;99.90;;;;;;5008676;28;20473;-69
2023/01/28 04:58:25;;;;;;;1999.90;999.90;;;1.70;99.90;;;;;;5008745;28;20457;-69
2023/01/28 05:00:56;;;;;;;1999.90;999.90;;;1.80;99.90;;;;;;5008036;28;21159;-68
2023/01/28 05:03:23;;;;;;;1999.90;999.90;;;1.70;99.90;;;;;;5008554;28;20489;-69
2023/01/28 05:05:50;;;;;;;1999.90;999.90;;;1.80;99.90;;;;;;5008241;28;20470;-68
2023/01/28 05:08:18;;;;;;;1999.90;999.90;;;1.80;99.90;;;;;;5019736;28;20441;-69
2023/01/28 05:10:45;;;;;;;1999.90;999.90;;;1.90;99.90;;;;;;5019497;28;20541;-69
2023/01/28 05:13:11;;;;;;;1999.90;999.90;;;1.90;99.90;;;;;;5016040;28;20438;-68
2023/01/28 05:15:40;;;;;;;1999.90;999.90;;;1.90;99.90;;;;;;5005001;28;20500;-67
2023/01/28 05:18:07;;;;;;;1999.90;999.90;;;1.80;99.90;;;;;;5000912;28;20450;-68
2023/01/28 05:20:33;;;;;;;1999.90;999.90;;;1.80;99.90;;;;;;5009215;28;20849;-69
2023/01/28 05:23:00;;;;;;;1999.90;999.90;;;1.80;99.90;;;;;;5009087;28;20869;-68
2023/01/28 05:25:27;;;;;;;1999.90;999.90;;;1.70;99.90;;;;;;5009311;28;20828;-68
2023/01/28 05:27:54;;;;;;;1999.90;999.90;;;1.70;99.90;;;;;;5009269;28;20450;-69
2023/01/28 05:30:21;;;;;;;1999.90;999.90;;;1.70;99.90;;;;;;5009289;28;20446;-69
2023/01/28 05:32:50;;;;;;;1999.90;999.90;;;1.70;99.90;;;;;;5009396;28;20461;-70
2023/01/28 05:35:16;;;;;;;1999.90;999.90;;;1.70;99.90;;;;;;5009420;28;20473;-69
2023/01/28 05:37:43;;;;;;;1999.90;999.90;;;1.70;99.90;;;;;;5009701;28;20933;-68
2023/01/28 05:40:11;;;;;;;1999.90;999.90;;;1.70;99.90;;;;;;5009156;28;20838;-69
2023/01/28 05:42:38;;;;;;;1999.90;999.90;;;1.60;99.90;;;;;;5015438;28;20448;-69
2023/01/28 05:45:05;;;;;;;1999.90;999.90;;;1.60;99.90;;;;;;5029008;28;20478;-68
2023/01/28 05:47:33;;;;;;;1999.90;999.90;;;1.50;99.90;;;;;;5029289;28;20449;-68
2023/01/28 05:50:02;;;;;;;1999.90;999.90;;;1.60;99.90;;;;;;5027460;28;20503;-68
2023/01/28 05:52:28;;;;;;;1999.90;999.90;;;1.60;99.90;;;;;;5009014;28;20446;-68
2023/01/28 05:54:55;;;;;;;1999.90;999.90;;;1.60;99.90;;;;;;5009329;28;21006;-69
2023/01/28 05:57:22;;;;;;;1999.90;999.90;;;1.60;99.90;;;;;;5009409;28;20449;-68
2023/01/28 05:59:48;;;;;;;1999.90;999.90;;;1.60;99.90;;;;;;5006823;28;20976;-68
2023/01/28 06:02:15;;;;;;;1999.90;999.90;;;1.60;99.90;;;;;;4989279;28;20527;-67
2023/01/28 06:04:42;;;;;;;1999.90;999.90;;;1.60;99.90;;;;;;5017803;28;20485;-68
2023/01/28 06:07:12;;;;;;;1999.90;999.90;;;1.60;99.90;;;;;;5029280;28;20456;-68
2023/01/28 06:09:38;;;;;;;1999.90;999.90;;;1.60;99.90;;;;;;5028366;28;20480;-68
2023/01/28 06:12:06;;;;;;;1999.90;999.90;;;1.60;99.90;;;;;;5009453;28;20982;-69
2023/01/28 06:14:32;;;;;;;1999.90;999.90;;;1.60;99.90;;;;;;5008684;28;20474;-69
2023/01/28 06:16:59;;;;;;;1999.90;999.90;;;1.60;99.90;;;;;;5009585;28;20442;-69
2023/01/28 06:19:26;;;;;;;1999.90;999.90;;;1.60;99.90;;;;;;5009359;28;20445;-69
2023/01/28 06:21:53;;;;;;;1999.90;999.90;;;1.70;99.90;;;;;;5008799;28;20528;-67
2023/01/28 06:24:21;;;;;;;1999.90;999.90;;;1.80;99.90;;;;;;5007811;28;20493;-68
2023/01/28 06:26:48;;;;;;;1999.90;999.90;;;1.80;99.90;;;;;;5003702;28;20528;-69
2023/01/28 06:29:15;;;;;;;1999.90;999.90;;;1.90;99.90;;;;;;5008828;28;20834;-69
2023/01/28 06:31:41;;;;;;;1999.90;999.90;;;1.90;99.90;;;;;;5008721;28;20442;-70
2023/01/28 06:34:10;;;;;;;1999.90;999.90;;;1.90;99.90;;;;;;5008404;28;20462;-69
2023/01/28 06:36:37;;;;;;;1999.90;999.90;;;1.90;99.90;;;;;;5006363;28;20906;-69
2023/01/28 06:39:04;;;;;;;1999.90;999.90;;;2.00;99.90;;;;;;5008154;28;20511;-68
2023/01/28 06:41:32;;;;;;;1999.90;999.90;;;2.00;99.90;;;;;;5008679;28;20446;-68
2023/01/28 06:43:59;;;;;;;1999.90;999.90;;;2.00;99.90;;;;;;5008332;28;20485;-69
2023/01/28 06:46:26;;;;;;;1999.90;999.90;;;2.00;99.90;;;;;;5008113;28;20437;-67
2023/01/28 06:48:53;;;;;;;1999.90;999.90;;;2.10;99.90;;;;;;5006378;28;20882;-68
2023/01/28 06:51:19;;;;;;;1999.90;999.90;;;2.20;99.90;;;;;;4988698;28;20840;-69
2023/01/28 06:53:46;;;;;;;1999.90;999.90;;;2.10;99.90;;;;;;4988193;28;20958;-69
2023/01/28 06:56:13;;;;;;;1999.90;999.90;;;2.10;99.90;;;;;;5007185;28;20446;-69
2023/01/28 06:58:41;;;;;;;1999.90;999.90;;;2.10;99.90;;;;;;5008114;28;20456;-69
2023/01/28 07:01:08;;;;;;;1999.90;999.90;;;2.10;99.90;;;;;;5008884;28;20807;-70
2023/01/28 07:03:36;;;;;;;1999.90;999.90;;;2.10;99.90;;;;;;5007895;28;21189;-70
2023/01/28 07:06:03;;;;;;;1999.90;999.90;;;2.10;99.90;;;;;;5008496;28;20458;-69
2023/01/28 07:08:29;;;;;;;1999.90;999.90;;;2.10;99.90;;;;;;5008610;28;20445;-69
2023/01/28 07:10:56;;;;;;;1999.90;999.90;;;2.10;99.90;;;;;;4990277;28;21016;-69
2023/01/28 07:13:23;;;;;;;1999.90;999.90;;;2.10;99.90;;;;;;4991070;28;20454;-69
2023/01/28 07:15:51;;;;;;;1999.90;999.90;;;2.10;99.90;;;;;;5011296;28;20541;-68
2023/01/28 07:18:18;;;;;;;1999.90;999.90;;;2.10;99.90;;;;;;5011889;28;20464;-69
2023/01/28 07:20:44;;;;;;;1999.90;999.90;;;2.00;99.90;;;;;;4995831;28;20482;-69
2023/01/28 07:23:12;;;;;;;1999.90;999.90;;;2.00;99.90;;;;;;4992099;28;20446;-69
2023/01/28 07:25:38;;;;;;;1999.90;999.90;;;1.90;99.90;;;;;;4992378;28;20540;-69
2023/01/28 07:28:05;;;;;;;1999.90;999.90;;;1.90;99.90;;;;;;4992186;28;20945;-69
2023/01/28 07:30:32;;;;;;;1999.90;999.90;;;1.90;99.90;;;;;;4992498;28;20462;-68
2023/01/28 07:33:00;;;;;;;1999.90;999.90;;;1.90;99.90;;;;;;4992120;28;20481;-68
2023/01/28 07:35:28;;;;;;;1999.90;999.90;;;2.00;99.90;;;;;;5018259;28;20465;-69
2023/01/28 07:37:56;;;;;;;1999.90;999.90;;;2.00;99.90;;;;;;5031731;28;20457;-69
2023/01/28 07:40:24;;;;;;;1999.90;999.90;;;2.00;99.90;;;;;;5013751;28;21112;-68
2023/01/28 07:42:51;;;;;;;1999.90;999.90;;;2.00;99.90;;;;;;5007668;28;21050;-68
2023/01/28 07:45:18;;;;;;;1999.90;999.90;;;2.00;99.90;;;;;;5011373;28;20489;-66
2023/01/28 07:47:45;;;;;;;1999.90;999.90;;;2.00;99.90;;;;;;5004738;28;20448;-68
2023/01/28 07:50:15;;;;;;;1999.90;999.90;;;2.00;99.90;;;;;;5007979;28;20476;-68
2023/01/28 07:52:44;;;;;;;1999.90;999.90;;;2.00;99.90;;;;;;5010864;28;20446;-69
2023/01/28 07:55:14;;;;;;;1999.90;999.90;;;2.00;99.90;;;;;;5009293;28;20497;-69
2023/01/28 07:57:48;;;;;;;1999.90;999.90;;;2.00;99.90;;;;;;5011172;28;20458;-68
2023/01/28 08:00:16;;;;;;;1999.90;999.90;;;2.10;99.90;;;;;;5000638;28;20510;-69
2023/01/28 08:02:43;;;;;;;1999.90;999.90;;;2.10;99.90;;;;;;5011029;28;20802;-69
2023/01/28 08:05:10;;;;;;;1999.90;999.90;;;2.20;99.90;;;;;;5011757;28;20486;-70
2023/01/28 08:07:38;;;;;;;1999.90;999.90;;;2.20;99.90;;;;;;5011300;28;20442;-69
2023/01/28 08:10:06;;;;;;;1999.90;999.90;;;2.30;99.90;;;;;;5011379;28;20541;-69
2023/01/28 08:12:33;;;;;;;1999.90;999.90;;;2.30;99.90;;;;;;5011239;28;20519;-69
2023/01/28 08:14:59;;;;;;;1999.90;999.90;;;2.40;99.90;;;;;;5012329;28;20470;-69
2023/01/28 08:17:28;;;;;;;1999.90;999.90;;;2.40;99.90;;;;;;5011826;28;20454;-69
2023/01/28 08:19:57;;;;;;;1999.90;999.90;;;2.40;99.90;;;;;;5011763;28;20485;-69
2023/01/28 08:22:25;;;;;;;1999.90;999.90;;;2.50;99.90;;;;;;5011564;28;20458;-69
2023/01/28 08:24:53;;;;;;;1999.90;999.90;;;2.50;99.90;;;;;;4995706;28;20482;-70
2023/01/28 08:27:20;;;;;;;1999.90;999.90;;;2.70;99.90;;;;;;4990990;28;20467;-70
2023/01/28 08:29:47;;;;;;;1999.90;999.90;;;2.80;99.90;;;;;;4991535;28;20462;-70
2023/01/28 08:32:13;;;;;;;1999.90;999.90;;;2.90;99.90;;;;;;4991993;28;20461;-70
2023/01/28 08:34:48;;;;;;;1999.90;999.90;;;3.00;99.90;;;;;;4994499;28;20482;-69
2023/01/28 08:37:15;;;;;;;1999.90;999.90;;;3.00;99.90;;;;;;4996499;28;20431;-72
2023/01/28 08:39:42;;;;;;;1999.90;999.90;;;3.10;99.90;;;;;;5010002;28;20949;-71
2023/01/28 08:42:10;;;;;;;1999.90;999.90;;;3.10;99.90;;;;;;5010787;28;20473;-69
2023/01/28 08:44:37;;;;;;;1999.90;999.90;;;3.00;99.90;;;;;;5010637;28;20496;-70
2023/01/28 08:47:03;;;;;;;1999.90;999.90;;;3.10;99.90;;;;;;5010755;28;20458;-71
2023/01/28 08:49:30;;;;;;;1999.90;999.90;;;3.00;99.90;;;;;;5006848;28;20458;-69
2023/01/28 08:51:57;;;;;;;1999.90;999.90;;;3.10;99.90;;;;;;5009030;28;21153;-70
2023/01/28 08:54:24;;;;;;;1999.90;999.90;;;3.10;99.90;;;;;;5009467;28;20999;-71
2023/01/28 08:56:51;;;;;;;1999.90;999.90;;;3.00;99.90;;;;;;5010514;28;20493;-70
2023/01/28 08:59:19;;;;;;;1999.90;999.90;;;3.10;99.90;;;;;;5010735;28;20449;-69
2023/01/28 09:01:46;;;;;;;1999.90;999.90;;;3.10;99.90;;;;;;4993332;28;20481;-69
2023/01/28 09:04:13;;;;;;;1999.90;999.90;;;3.20;99.90;;;;;;4990498;28;20490;-71
2023/01/28 09:06:39;;;;;;;1999.90;999.90;;;3.40;99.90;;;;;;4990880;28;20446;-71
2023/01/28 09:09:06;;;;;;;1999.90;999.90;;;3.40;99.90;;;;;;4990629;28;20447;-70
2023/01/28 09:11:33;;;;;;;1999.90;999.90;;;3.40;99.90;;;;;;4990347;28;20459;-71
2023/01/28 09:14:00;;;;;;;1999.90;999.90;;;3.30;99.90;;;;;;4989596;28;20495;-65
2023/01/28 09:16:28;;;;;;;1999.90;999.90;;;3.30;99.90;;;;;;5004071;28;21140;-70
2023/01/28 09:18:55;;;;;;;1999.90;999.90;;;3.30;99.90;;;;;;5009353;28;20442;-70
2023/01/28 09:21:22;;;;;;;1999.90;999.90;;;3.30;99.90;;;;;;5005138;28;21024;-70
2023/01/28 09:23:49;;;;;;;1999.90;999.90;;;3.40;99.90;;;;;;5008220;28;20450;-71
2023/01/28 09:26:15;;;;;;;1999.90;999.90;;;3.40;99.90;;;;;;5010055;28;20491;-72
2023/01/28 09:28:42;;;;;;;1999.90;999.90;;;3.40;99.90;;;;;;5009827;28;20460;-71
2023/01/28 09:31:11;;;;;;;1999.90;999.90;;;3.40;99.90;;;;;;5012031;28;20450;-71
2023/01/28 09:33:40;;;;;;;1999.90;999.90;;;3.40;99.90;;;;;;5009805;28;20445;-71
2023/01/28 09:36:11;;;;;;;1999.90;999.90;;;3.50;99.90;;;;;;5009791;28;20472;-71
2023/01/28 09:38:38;;;;;;;1999.90;999.90;;;3.50;99.90;;;;;;5009466;28;20456;-71
2023/01/28 09:41:17;;;;;;;1999.90;999.90;;;3.50;99.90;;;;;;4999933;28;20462;-70
2023/01/28 09:43:59;;;;;;;1999.90;999.90;;;3.60;99.90;;;;;;4991391;28;20821;-71
2023/01/28 09:46:32;;;;;;;1999.90;999.90;;;3.70;99.90;;;;;;5003532;28;20515;-69
2023/01/28 09:49:03;;;;;;;1999.90;999.90;;;3.70;99.90;;;;;;5009340;28;20445;-73
2023/01/28 09:51:36;;;;;;;1999.90;999.90;;;3.60;99.90;;;;;;4998600;28;20525;-70
2023/01/28 09:54:08;;;;;;;1999.90;999.90;;;3.50;99.90;;;;;;5005449;28;20977;-72
2023/01/28 09:56:39;;;;;;;1999.90;999.90;;;3.60;99.90;;;;;;5007978;28;20446;-71
2023/01/28 09:59:18;;;;;;;1999.90;999.90;;;3.60;99.90;;;;;;5004077;28;20500;-70
2023/01/28 10:01:52;;;;;;;1999.90;999.90;;;3.50;99.90;;;;;;5007789;28;20505;-70
2023/01/28 10:04:31;;;;;;;1999.90;999.90;;;3.40;99.90;;;;;;5008554;28;20978;-72
2023/01/28 10:07:10;;;;;;;1999.90;999.90;;;3.20;99.90;;;;;;5006055;28;20449;-71
2023/01/28 10:09:43;;;;;;;1999.90;999.90;;;3.20;99.90;;;;;;5001865;28;20554;-71
2023/01/28 10:12:31;;;;;;;1999.90;999.90;;;3.20;99.90;;;;;;5000212;28;20453;-71
2023/01/28 10:15:19;;;;;;;1999.90;999.90;;;3.20;99.90;;;;;;4999761;28;21367;-69
2023/01/28 10:17:48;;;;;;;1999.90;999.90;;;3.20;99.90;;;;;;4999993;28;20446;-70
2023/01/28 10:20:24;;;;;;;1999.90;999.90;;;3.20;99.90;;;;;;4998676;28;20829;-70
2023/01/28 10:22:56;;;;;;;1999.90;999.90;;;3.20;99.90;;;;;;4998286;28;20804;-67
2023/01/28 10:25:25;;;;;;;1999.90;999.90;;;3.20;99.90;;;;;;4999472;28;20580;-66
2023/01/28 10:27:52;;;;;;;1999.90;999.90;;;3.10;99.90;;;;;;4998975;28;20453;-69
2023/01/28 10:30:21;;;;;;;1999.90;999.90;;;3.20;99.90;;;;;;4999729;28;20450;-69
2023/01/28 10:32:52;;;;;;;1999.90;999.90;;;3.20;99.90;;;;;;4997660;28;21245;-68
2023/01/28 10:35:20;;;;;;;1999.90;999.90;;;3.30;99.90;;;;;;4997449;28;20816;-71
2023/01/28 10:37:47;;;;;;;1999.90;999.90;;;3.40;99.90;;;;;;4996949;28;20469;-69
2023/01/28 10:40:16;;;;;;;1999.90;999.90;;;3.40;99.90;;;;;;5002579;28;21139;-71
2023/01/28 10:42:43;;;;;;;1999.90;999.90;;;3.40;99.90;;;;;;5003470;28;20491;-69
2023/01/28 10:45:18;;;;;;;1999.90;999.90;;;3.40;99.90;;;;;;4997712;28;20482;-70
2023/01/28 10:47:50;;;;;;;1999.90;999.90;;;3.40;99.90;;;;;;4999981;28;20500;-71
2023/01/28 10:50:22;;;;;;;1999.90;999.90;;;3.60;99.90;;;;;;4999092;28;21066;-70
2023/01/28 10:53:00;;;;;;;1999.90;999.90;;;3.80;99.90;;;;;;5002609;28;20443;-70
2023/01/28 10:55:30;;;;;;;1999.90;999.90;;;4.00;99.90;;;;;;5001722;28;20460;-71
2023/01/28 10:57:57;;;;;;;1999.90;999.90;;;4.10;99.90;;;;;;5003226;28;20439;-71
2023/01/28 11:00:29;;;;;;;1999.90;999.90;;;4.10;99.90;;;;;;5001437;28;20451;-69
2023/01/28 11:02:57;;;;;;;1999.90;999.90;;;4.00;99.90;;;;;;5007049;28;20473;-69
2023/01/28 11:05:26;;;;;;;1999.90;999.90;;;3.90;99.90;;;;;;5006687;28;21126;-69
2023/01/28 11:08:04;;;;;;;1999.90;999.90;;;4.10;99.90;;;;;;5010992;28;20446;-69
2023/01/28 11:10:34;;;;;;;1999.90;999.90;;;4.20;99.90;;;;;;5012015;28;20461;-71
2023/01/28 11:13:03;;;;;;;1999.90;999.90;;;4.20;99.90;;;;;;5011428;28;20484;-68
2023/01/28 11:15:30;;;;;;;1999.90;999.90;;;4.20;99.90;;;;;;5010505;28;20466;-70
2023/01/28 11:18:00;;;;;;;1999.90;999.90;;;4.10;99.90;;;;;;5007735;28;20453;-68
2023/01/28 11:20:34;;;;;;;1999.90;999.90;;;4.00;99.90;;;;;;5005730;28;21011;-70
2023/01/28 11:23:01;;;;;;;1999.90;999.90;;;3.90;99.90;;;;;;5001645;28;20446;-68
2023/01/28 11:25:32;;;;;;;1999.90;999.90;;;3.80;99.90;;;;;;5004233;28;20513;-69
2023/01/28 11:28:00;;;;;;;1999.90;999.90;;;3.70;99.90;;;;;;5001290;28;20812;-68
2023/01/28 11:30:29;;;;;;;1999.90;999.90;;;3.60;99.90;;;;;;4999740;28;20442;-69
2023/01/28 11:32:59;;;;;;;1999.90;999.90;;;3.60;99.90;;;;;;5000334;28;20453;-70
2023/01/28 11:35:29;;;;;;;1999.90;999.90;;;3.50;99.90;;;;;;5002003;28;20466;-68
2023/01/28 11:37:58;;;;;;;1999.90;999.90;;;3.50;99.90;;;;;;5001093;28;20454;-70
2023/01/28 11:40:25;;;;;;;1999.90;999.90;;;3.60;99.90;;;;;;4999682;28;20996;-68
2023/01/28 11:42:55;;;;;;;1999.90;999.90;;;3.60;99.90;;;;;;5000564;28;20453;-70
2023/01/28 11:45:31;;;;;;;1999.90;999.90;;;3.60;99.90;;;;;;5005519;28;20492;-71
2023/01/28 11:48:19;;;;;;;1999.90;999.90;;;3.70;99.90;;;;;;5007776;28;21280;-70
2023/01/28 11:50:54;;;;;;;1999.90;999.90;;;3.60;99.90;;;;;;5004133;28;20450;-69
2023/01/28 11:53:53;;;;;;;1999.90;999.90;;;3.50;99.90;;;;;;4995161;28;20440;-69
2023/01/28 11:56:34;;;;;;;1999.90;999.90;;;3.40;99.90;;;;;;5001602;28;20427;-70
2023/01/28 11:59:17;;;;;;;1999.90;999.90;;;3.40;99.90;;;;;;4998982;28;20921;-69
2023/01/28 12:01:53;;;;;;;1999.90;999.90;;;3.40;99.90;;;;;;5002339;28;20461;-70
2023/01/28 12:04:28;;;;;;;1999.90;999.90;;;3.40;99.90;;;;;;5007759;28;20465;-70
2023/01/28 12:07:11;;;;;;;1999.90;999.90;;;3.40;99.90;;;;;;5001752;28;21002;-71
2023/01/28 12:09:48;;;;;;;1999.90;999.90;;;3.30;99.90;;;;;;5003193;28;20461;-70
2023/01/28 12:12:29;;;;;;;1999.90;999.90;;;3.30;99.90;;;;;;5001571;28;20461;-71
2023/01/28 12:15:16;;;;;;;1999.90;999.90;;;3.20;99.90;;;;;;5002009;28;20473;-70
2023/01/28 12:17:57;;;;;;;1999.90;999.90;;;3.20;99.90;;;;;;5005695;28;20438;-70
2023/01/28 12:20:30;;;;;;;1999.90;999.90;;;3.20;99.90;;;;;;4996062;28;20434;-69
2023/01/28 12:23:19;;;;;;;1999.90;999.90;;;3.20;99.90;;;;;;4999754;28;20866;-72
2023/01/28 12:26:00;;;;;;;1999.90;999.90;;;3.30;99.90;;;;;;4999187;28;20486;-71
2023/01/28 12:28:38;;;;;;;1999.90;999.90;;;3.30;99.90;;;;;;5003197;28;20434;-70
2023/01/28 12:31:22;;;;;;;1999.90;999.90;;;3.30;99.90;;;;;;5005395;28;20449;-71
2023/01/28 12:34:01;;;;;;;1999.90;999.90;;;3.30;99.90;;;;;;4988616;28;20802;-70
2023/01/28 12:36:44;;;;;;;1999.90;999.90;;;3.40;99.90;;;;;;5007928;28;20437;-70
2023/01/28 12:39:23;;;;;;;1999.90;999.90;;;3.30;99.90;;;;;;5007876;28;20438;-70
2023/01/28 12:41:55;;;;;;;1999.90;999.90;;;3.40;99.90;;;;;;5007779;28;20438;-71
2023/01/28 12:44:28;;;;;;;1999.90;999.90;;;3.40;99.90;;;;;;4998368;28;20454;-69
2023/01/28 12:46:58;;;;;;;1999.90;999.90;;;3.40;99.90;;;;;;5002171;28;20854;-70
2023/01/28 12:49:30;;;;;;;1999.90;999.90;;;3.10;99.90;;;;;;4996838;28;20537;-70
2023/01/28 12:52:05;;;;;;;1999.90;999.90;;;3.00;99.90;;;;;;4996209;28;20434;-72
2023/01/28 12:54:39;;;;;;;1999.90;999.90;;;2.90;99.90;;;;;;5005108;28;20480;-73